createdAt,value
2023-10-26T00:00:42.278Z,71.52
2023-10-26T00:01:44.325Z,71.53
2023-10-26T00:02:46.337Z,71.55
2023-10-26T00:03:48.528Z,71.58
2023-10-26T00:04:50.698Z,71.63
2023-10-26T00:05:52.667Z,71.64
2023-10-26T00:06:55.133Z,71.65
2023-10-26T00:07:57.069Z,71.65
2023-10-26T00:08:59.069Z,71.66
2023-10-26T00:10:00.988Z,71.66
2023-10-26T00:11:03.032Z,71.67
2023-10-26T00:12:05.357Z,71.63
2023-10-26T00:13:08.856Z,71.61
2023-10-26T00:14:10.948Z,71.60
2023-10-26T00:15:12.923Z,71.58
2023-10-26T00:16:14.939Z,71.60
2023-10-26T00:17:16.901Z,71.63
2023-10-26T00:18:18.957Z,71.63
2023-10-26T00:19:21.154Z,71.65
2023-10-26T00:20:23.172Z,71.65
2023-10-26T00:21:25.138Z,71.61
2023-10-26T00:22:27.172Z,71.61
2023-10-26T00:23:29.224Z,71.58
2023-10-26T00:24:31.168Z,71.64
2023-10-26T00:25:33.120Z,71.63
2023-10-26T00:26:35.085Z,71.66
2023-10-26T00:27:37.031Z,71.70
2023-10-26T00:28:38.981Z,71.70
2023-10-26T00:29:40.936Z,71.75
2023-10-26T00:30:43.092Z,71.74
2023-10-26T00:31:45.047Z,71.78
2023-10-26T00:32:47.294Z,71.80
2023-10-26T00:33:49.272Z,71.67
2023-10-26T00:34:51.309Z,71.86
2023-10-26T00:35:53.291Z,71.89
2023-10-26T00:36:55.530Z,71.94
2023-10-26T00:37:57.873Z,71.95
2023-10-26T00:38:59.751Z,71.95
2023-10-26T00:40:01.702Z,71.97
2023-10-26T00:41:03.732Z,71.97
2023-10-26T00:42:05.644Z,71.97
2023-10-26T00:43:07.660Z,72.00
2023-10-26T00:44:09.689Z,72.02
2023-10-26T00:45:11.581Z,72.03
2023-10-26T00:46:13.603Z,72.05
2023-10-26T00:47:15.546Z,72.08
2023-10-26T00:48:17.630Z,72.10
2023-10-26T00:49:19.905Z,72.10
2023-10-26T00:50:22.133Z,72.11
2023-10-26T00:51:24.422Z,72.15
2023-10-26T00:52:26.443Z,72.17
2023-10-26T00:53:28.390Z,72.19
2023-10-26T00:54:30.344Z,72.23
2023-10-26T00:55:32.394Z,72.25
2023-10-26T00:56:34.650Z,72.28
2023-10-26T00:57:36.702Z,72.29
2023-10-26T00:58:38.657Z,72.29
2023-10-26T00:59:40.629Z,72.29
2023-10-26T01:00:42.768Z,72.27
2023-10-26T01:01:44.623Z,72.23
2023-10-26T01:02:46.712Z,72.23
2023-10-26T01:03:48.749Z,72.24
2023-10-26T01:04:51.097Z,72.24
2023-10-26T01:05:53.230Z,72.26
2023-10-26T01:06:55.216Z,72.29
2023-10-26T01:07:57.154Z,72.33
2023-10-26T01:08:59.041Z,72.34
2023-10-26T01:10:01.083Z,72.34
2023-10-26T01:11:03.121Z,72.33
2023-10-26T01:12:04.937Z,72.33
2023-10-26T01:13:06.820Z,72.35
2023-10-26T01:14:08.767Z,72.39
2023-10-26T01:15:10.972Z,72.41
2023-10-26T01:16:13.088Z,72.46
2023-10-26T01:17:15.038Z,72.48
2023-10-26T01:18:17.228Z,72.50
2023-10-26T01:19:19.382Z,72.53
2023-10-26T01:20:21.441Z,72.49
2023-10-26T01:21:23.505Z,72.48
2023-10-26T01:22:25.521Z,72.51
2023-10-26T01:23:27.887Z,72.50
2023-10-26T01:24:29.837Z,72.49
2023-10-26T01:25:31.581Z,72.45
2023-10-26T01:26:33.637Z,72.43
2023-10-26T01:27:35.587Z,72.41
2023-10-26T01:28:37.548Z,72.43
2023-10-26T01:29:39.504Z,72.43
2023-10-26T01:30:41.879Z,72.46
2023-10-26T01:31:43.935Z,72.43
2023-10-26T01:32:46.017Z,72.42
2023-10-26T01:33:48.063Z,72.41
2023-10-26T01:34:50.276Z,72.39
2023-10-26T01:35:52.188Z,72.35
2023-10-26T01:36:54.198Z,72.34
2023-10-26T01:37:56.240Z,72.35
2023-10-26T01:38:58.237Z,72.40
2023-10-26T01:40:00.209Z,72.39
2023-10-26T01:41:02.003Z,72.37
2023-10-26T01:42:03.887Z,72.42
2023-10-26T01:43:05.831Z,72.45
2023-10-26T01:44:07.747Z,72.48
2023-10-26T01:45:09.759Z,72.50
2023-10-26T01:46:12.074Z,72.53
2023-10-26T01:47:14.133Z,72.52
2023-10-26T01:48:16.245Z,72.50
2023-10-26T01:49:18.198Z,72.46
2023-10-26T01:50:20.280Z,72.43
2023-10-26T01:51:22.369Z,72.42
2023-10-26T01:52:24.432Z,72.43
2023-10-26T01:53:26.454Z,72.41
2023-10-26T01:54:28.428Z,72.39
2023-10-26T01:55:30.580Z,72.37
2023-10-26T01:56:33.149Z,72.36
2023-10-26T01:57:35.078Z,72.35
2023-10-26T01:58:37.026Z,72.33
2023-10-26T01:59:38.993Z,72.33
2023-10-26T02:00:41.453Z,72.34
2023-10-26T02:01:43.310Z,72.33
2023-10-26T02:02:45.710Z,72.29
2023-10-26T02:03:47.753Z,72.29
2023-10-26T02:04:49.769Z,72.26
2023-10-26T02:05:51.795Z,72.23
2023-10-26T02:06:53.837Z,72.21
2023-10-26T02:07:55.838Z,72.17
2023-10-26T02:08:57.841Z,72.12
2023-10-26T02:09:59.736Z,72.09
2023-10-26T02:11:01.933Z,72.05
2023-10-26T02:12:03.953Z,72.03
2023-10-26T02:13:05.921Z,72.03
2023-10-26T02:14:07.852Z,72.00
2023-10-26T02:15:09.748Z,71.99
2023-10-26T02:16:12.577Z,72.00
2023-10-26T02:17:14.535Z,71.97
2023-10-26T02:18:16.608Z,71.94
2023-10-26T02:19:19.671Z,71.87
2023-10-26T02:20:21.941Z,71.83
2023-10-26T02:21:23.985Z,71.79
2023-10-26T02:22:25.842Z,71.79
2023-10-26T02:23:27.642Z,71.79
2023-10-26T02:24:29.568Z,71.79
2023-10-26T02:25:31.349Z,71.76
2023-10-26T02:26:33.194Z,71.68
2023-10-26T02:27:35.043Z,71.67
2023-10-26T02:28:36.951Z,71.65
2023-10-26T02:29:38.803Z,71.65
2023-10-26T02:30:40.759Z,71.60
2023-10-26T02:31:42.603Z,71.58
2023-10-26T02:32:44.536Z,71.70
2023-10-26T02:33:46.455Z,71.70
2023-10-26T02:34:48.320Z,71.48
2023-10-26T02:35:50.142Z,71.51
2023-10-26T02:36:52.182Z,71.49
2023-10-26T02:37:54.048Z,71.44
2023-10-26T02:38:55.977Z,71.43
2023-10-26T02:39:57.811Z,71.45
2023-10-26T02:40:59.666Z,71.43
2023-10-26T02:42:01.555Z,71.41
2023-10-26T02:43:03.372Z,71.38
2023-10-26T02:44:05.263Z,71.34
2023-10-26T02:45:07.101Z,71.30
2023-10-26T02:46:08.966Z,71.25
2023-10-26T02:47:10.801Z,71.26
2023-10-26T02:48:12.723Z,71.27
2023-10-26T02:49:14.651Z,71.28
2023-10-26T02:50:17.064Z,71.29
2023-10-26T02:51:18.968Z,71.29
2023-10-26T02:52:20.834Z,71.32
2023-10-26T02:53:22.626Z,71.31
2023-10-26T02:54:24.399Z,71.36
2023-10-26T02:55:26.246Z,71.39
2023-10-26T02:56:28.404Z,71.39
2023-10-26T02:57:30.287Z,71.36
2023-10-26T02:58:32.110Z,71.41
2023-10-26T02:59:34.074Z,71.38
2023-10-26T03:00:36.037Z,71.41
2023-10-26T03:01:38.496Z,71.42
2023-10-26T03:02:41.919Z,71.46
2023-10-26T03:03:44.125Z,71.42
2023-10-26T03:04:46.288Z,71.43
2023-10-26T03:05:48.265Z,71.42
2023-10-26T03:06:50.299Z,71.43
2023-10-26T03:07:52.358Z,71.43
2023-10-26T03:08:54.425Z,71.42
2023-10-26T03:09:56.513Z,71.38
2023-10-26T03:10:58.619Z,71.37
2023-10-26T03:12:00.613Z,71.39
2023-10-26T03:13:02.636Z,71.40
2023-10-26T03:14:04.478Z,71.44
2023-10-26T03:15:06.456Z,71.42
2023-10-26T03:16:08.814Z,71.41
2023-10-26T03:17:10.757Z,71.40
2023-10-26T03:18:12.803Z,71.41
2023-10-26T03:19:14.758Z,71.41
2023-10-26T03:20:17.007Z,71.42
2023-10-26T03:21:18.991Z,71.41
2023-10-26T03:22:21.384Z,71.37
2023-10-26T03:23:23.490Z,71.37
2023-10-26T03:24:25.776Z,71.39
2023-10-26T03:25:27.821Z,71.35
2023-10-26T03:26:29.768Z,71.39
2023-10-26T03:27:31.751Z,71.40
2023-10-26T03:28:33.774Z,71.40
2023-10-26T03:29:35.714Z,71.37
2023-10-26T03:30:37.791Z,71.39
2023-10-26T03:31:39.829Z,71.36
2023-10-26T03:32:41.814Z,71.33
2023-10-26T03:33:43.766Z,71.25
2023-10-26T03:34:45.968Z,71.12
2023-10-26T03:35:48.158Z,71.06
2023-10-26T03:36:50.125Z,71.00
2023-10-26T03:37:52.262Z,70.89
2023-10-26T03:38:54.232Z,70.85
2023-10-26T03:39:56.163Z,70.83
2023-10-26T03:40:58.324Z,70.90
2023-10-26T03:42:00.330Z,70.92
2023-10-26T03:43:02.331Z,70.92
2023-10-26T03:44:04.292Z,70.94
2023-10-26T03:45:06.286Z,70.98
2023-10-26T03:46:08.234Z,71.01
2023-10-26T03:47:10.228Z,70.95
2023-10-26T03:48:12.153Z,70.82
2023-10-26T03:49:14.047Z,70.73
2023-10-26T03:50:15.892Z,70.70
2023-10-26T03:51:17.824Z,70.70
2023-10-26T03:52:19.749Z,70.49
2023-10-26T03:53:21.597Z,70.40
2023-10-26T03:54:23.477Z,70.39
2023-10-26T03:55:25.374Z,70.41
2023-10-26T03:56:27.250Z,70.46
2023-10-26T03:57:29.106Z,70.55
2023-10-26T03:58:30.949Z,70.62
2023-10-26T03:59:32.685Z,70.64
2023-10-26T04:00:34.863Z,70.70
2023-10-26T04:01:36.737Z,70.77
2023-10-26T04:02:38.593Z,70.82
2023-10-26T04:03:40.533Z,70.86
2023-10-26T04:04:42.491Z,71.04
2023-10-26T04:05:44.508Z,71.00
2023-10-26T04:06:46.401Z,71.07
2023-10-26T04:07:48.245Z,71.13
2023-10-26T04:08:50.073Z,71.20
2023-10-26T04:09:51.929Z,71.22
2023-10-26T04:10:55.510Z,71.25
2023-10-26T04:11:57.404Z,71.24
2023-10-26T04:12:59.216Z,71.28
2023-10-26T04:14:01.086Z,71.35
2023-10-26T04:15:02.969Z,71.45
2023-10-26T04:16:04.870Z,71.50
2023-10-26T04:17:06.746Z,71.57
2023-10-26T04:18:08.556Z,71.65
2023-10-26T04:19:11.487Z,71.72
2023-10-26T04:20:13.464Z,71.81
2023-10-26T04:21:15.388Z,71.86
2023-10-26T04:22:17.271Z,71.92
2023-10-26T04:23:19.697Z,71.94
2023-10-26T04:24:21.587Z,71.96
2023-10-26T04:25:23.649Z,71.97
2023-10-26T04:26:25.692Z,71.96
2023-10-26T04:27:27.624Z,71.97
2023-10-26T04:28:29.320Z,71.96
2023-10-26T04:29:31.170Z,71.99
2023-10-26T04:30:33.069Z,71.73
2023-10-26T04:31:34.894Z,71.73
2023-10-26T04:32:36.797Z,71.96
2023-10-26T04:33:38.679Z,71.96
2023-10-26T04:34:40.465Z,71.94
2023-10-26T04:35:42.288Z,71.94
2023-10-26T04:36:44.134Z,71.93
2023-10-26T04:37:46.016Z,71.94
2023-10-26T04:38:47.837Z,71.91
2023-10-26T04:39:49.691Z,71.87
2023-10-26T04:40:51.551Z,71.85
2023-10-26T04:41:53.391Z,71.84
2023-10-26T04:42:55.252Z,71.83
2023-10-26T04:43:57.081Z,71.83
2023-10-26T04:44:58.970Z,71.81
2023-10-26T04:46:00.796Z,71.80
2023-10-26T04:47:02.622Z,71.79
2023-10-26T04:48:04.722Z,71.79
2023-10-26T04:49:06.743Z,71.75
2023-10-26T04:50:08.583Z,71.72
2023-10-26T04:51:10.452Z,71.71
2023-10-26T04:52:12.182Z,71.72
2023-10-26T04:53:14.058Z,71.72
2023-10-26T04:54:15.899Z,71.74
2023-10-26T04:55:17.734Z,71.76
2023-10-26T04:56:19.603Z,71.76
2023-10-26T04:57:21.365Z,71.79
2023-10-26T04:58:23.209Z,71.77
2023-10-26T05:00:29.515Z,71.80
2023-10-26T05:01:32.945Z,71.79
2023-10-26T05:02:34.885Z,71.76
2023-10-26T05:03:36.662Z,71.81
2023-10-26T05:04:38.476Z,71.79
2023-10-26T05:05:40.344Z,71.83
2023-10-26T05:06:42.259Z,71.83
2023-10-26T05:07:44.120Z,71.86
2023-10-26T05:08:45.910Z,71.86
2023-10-26T05:09:47.772Z,71.86
2023-10-26T05:10:49.965Z,71.86
2023-10-26T05:11:51.837Z,71.84
2023-10-26T05:12:54.202Z,71.85
2023-10-26T05:13:56.085Z,71.87
2023-10-26T05:14:58.030Z,71.90
2023-10-26T05:15:59.914Z,71.86
2023-10-26T05:17:01.663Z,71.82
2023-10-26T05:18:03.744Z,71.81
2023-10-26T05:19:05.684Z,71.87
2023-10-26T05:20:07.628Z,71.87
2023-10-26T05:21:09.391Z,71.88
2023-10-26T05:22:11.126Z,71.86
2023-10-26T05:23:12.971Z,71.85
2023-10-26T05:24:14.850Z,71.84
2023-10-26T05:25:16.688Z,71.85
2023-10-26T05:26:18.632Z,71.88
2023-10-26T05:27:20.571Z,71.90
2023-10-26T05:28:22.479Z,71.94
2023-10-26T05:29:24.344Z,71.93
2023-10-26T05:30:26.221Z,71.92
2023-10-26T05:31:28.071Z,71.90
2023-10-26T05:32:29.928Z,71.91
2023-10-26T05:33:32.185Z,71.90
2023-10-26T05:34:35.505Z,71.84
2023-10-26T05:35:37.336Z,71.81
2023-10-26T05:36:39.462Z,71.81
2023-10-26T05:37:41.325Z,71.82
2023-10-26T05:38:45.896Z,71.83
2023-10-26T05:39:46.854Z,71.82
2023-10-26T05:40:48.919Z,71.81
2023-10-26T05:41:50.926Z,71.75
2023-10-26T05:42:52.876Z,71.78
2023-10-26T05:43:54.831Z,71.80
2023-10-26T05:44:56.840Z,71.78
2023-10-26T05:45:58.958Z,71.77
2023-10-26T05:47:01.103Z,71.80
2023-10-26T05:48:03.122Z,71.79
2023-10-26T05:49:05.007Z,71.84
2023-10-26T05:50:06.982Z,71.87
2023-10-26T05:51:08.929Z,71.89
2023-10-26T05:52:10.796Z,71.91
2023-10-26T05:53:12.657Z,71.91
2023-10-26T05:54:14.541Z,71.90
2023-10-26T05:55:16.515Z,71.92
2023-10-26T05:56:18.369Z,71.89
2023-10-26T05:57:20.286Z,71.90
2023-10-26T05:58:22.129Z,71.86
2023-10-26T05:59:23.970Z,71.86
2023-10-26T06:00:25.877Z,71.88
2023-10-26T06:01:27.855Z,71.89
2023-10-26T06:02:29.776Z,71.86
2023-10-26T06:03:31.861Z,71.88
2023-10-26T06:04:33.761Z,71.91
2023-10-26T06:05:35.639Z,71.95
2023-10-26T06:06:37.628Z,71.90
2023-10-26T06:07:39.357Z,71.90
2023-10-26T06:08:41.399Z,71.89
2023-10-26T06:09:43.268Z,71.89
2023-10-26T06:10:45.374Z,71.93
2023-10-26T06:11:47.236Z,71.94
2023-10-26T06:12:49.080Z,71.93
2023-10-26T06:13:50.931Z,71.90
2023-10-26T06:14:52.683Z,71.86
2023-10-26T06:15:54.653Z,71.86
2023-10-26T06:16:56.729Z,71.82
2023-10-26T06:17:58.659Z,71.83
2023-10-26T06:19:00.529Z,71.77
2023-10-26T06:20:02.374Z,71.79
2023-10-26T06:21:04.301Z,71.78
2023-10-26T06:22:06.122Z,71.74
2023-10-26T06:23:07.907Z,71.69
2023-10-26T06:24:09.820Z,71.71
2023-10-26T06:25:11.615Z,71.74
2023-10-26T06:26:13.724Z,71.75
2023-10-26T06:27:15.583Z,71.74
2023-10-26T06:28:17.428Z,71.75
2023-10-26T06:29:19.278Z,71.87
2023-10-26T06:30:21.252Z,71.87
2023-10-26T06:31:23.237Z,71.72
2023-10-26T06:32:25.124Z,71.69
2023-10-26T06:33:27.104Z,71.70
2023-10-26T06:34:28.900Z,71.66
2023-10-26T06:35:30.663Z,71.57
2023-10-26T06:36:32.638Z,71.54
2023-10-26T06:37:34.523Z,71.48
2023-10-26T06:38:36.396Z,71.44
2023-10-26T06:39:38.242Z,71.42
2023-10-26T06:40:40.110Z,71.70
2023-10-26T06:41:41.982Z,71.70
2023-10-26T06:42:43.838Z,71.35
2023-10-26T06:43:45.609Z,71.34
2023-10-26T06:44:47.456Z,71.33
2023-10-26T06:45:49.363Z,71.34
2023-10-26T06:46:51.196Z,71.30
2023-10-26T06:47:52.966Z,71.31
2023-10-26T06:48:54.742Z,71.30
2023-10-26T06:49:56.640Z,71.28
2023-10-26T06:50:58.547Z,71.23
2023-10-26T06:52:00.508Z,71.10
2023-10-26T06:53:02.334Z,71.15
2023-10-26T06:54:04.270Z,71.10
2023-10-26T06:55:15.699Z,71.10
2023-10-26T06:56:09.938Z,71.12
2023-10-26T06:57:11.833Z,71.15
2023-10-26T06:58:13.777Z,71.21
2023-10-26T06:59:15.556Z,71.20
2023-10-26T07:00:17.506Z,71.58
2023-10-26T07:01:21.131Z,71.20
2023-10-26T07:02:23.162Z,71.21
2023-10-26T07:03:25.006Z,71.21
2023-10-26T07:04:26.870Z,71.23
2023-10-26T07:05:28.762Z,71.19
2023-10-26T07:06:30.739Z,71.15
2023-10-26T07:07:32.721Z,71.15
2023-10-26T07:08:34.595Z,71.17
2023-10-26T07:09:36.484Z,71.19
2023-10-26T07:10:38.388Z,71.20
2023-10-26T07:11:40.245Z,71.25
2023-10-26T07:12:42.156Z,71.23
2023-10-26T07:13:44.007Z,71.23
2023-10-26T07:14:45.766Z,71.25
2023-10-26T07:15:47.646Z,71.20
2023-10-26T07:16:49.693Z,71.13
2023-10-26T07:17:51.504Z,71.10
2023-10-26T07:18:53.345Z,71.08
2023-10-26T07:19:55.189Z,71.03
2023-10-26T07:20:57.072Z,71.03
2023-10-26T07:21:58.951Z,71.04
2023-10-26T07:23:00.826Z,70.99
2023-10-26T07:24:02.621Z,70.92
2023-10-26T07:25:04.483Z,70.86
2023-10-26T07:26:06.630Z,70.85
2023-10-26T07:27:08.521Z,70.85
2023-10-26T07:28:10.381Z,70.81
2023-10-26T07:29:12.253Z,70.81
2023-10-26T07:30:14.228Z,70.82
2023-10-26T07:31:16.059Z,70.80
2023-10-26T07:32:17.916Z,70.81
2023-10-26T07:33:19.954Z,70.82
2023-10-26T07:34:22.016Z,70.87
2023-10-26T07:35:23.918Z,70.85
2023-10-26T07:36:25.823Z,70.87
2023-10-26T07:37:27.674Z,70.89
2023-10-26T07:38:36.981Z,70.87
2023-10-26T07:39:46.039Z,70.93
2023-10-26T07:40:36.853Z,70.96
2023-10-26T07:42:07.988Z,70.96
2023-10-26T07:42:42.306Z,70.97
2023-10-26T07:43:45.640Z,70.97
2023-10-26T07:44:47.850Z,70.93
2023-10-26T07:45:49.766Z,70.92
2023-10-26T07:46:52.222Z,70.96
2023-10-26T07:47:54.005Z,70.97
2023-10-26T07:48:56.040Z,70.99
2023-10-26T07:49:57.921Z,70.99
2023-10-26T07:50:59.774Z,71.00
2023-10-26T07:52:01.633Z,71.00
2023-10-26T07:53:03.369Z,71.02
2023-10-26T07:55:08.095Z,71.02
2023-10-26T07:56:11.069Z,71.02
2023-10-26T07:57:12.972Z,71.01
2023-10-26T07:58:14.733Z,70.95
2023-10-26T07:59:16.664Z,70.97
2023-10-26T08:00:18.637Z,70.99
2023-10-26T08:01:21.426Z,71.00
2023-10-26T08:02:23.414Z,71.05
2023-10-26T08:03:25.428Z,71.09
2023-10-26T08:04:27.532Z,71.07
2023-10-26T08:05:29.434Z,71.06
2023-10-26T08:06:31.289Z,71.01
2023-10-26T08:07:33.192Z,70.99
2023-10-26T08:08:35.000Z,70.88
2023-10-26T08:09:36.871Z,70.74
2023-10-26T08:10:38.829Z,70.70
2023-10-26T08:11:40.833Z,70.66
2023-10-26T08:12:42.568Z,70.55
2023-10-26T08:13:44.438Z,70.42
2023-10-26T08:16:32.173Z,70.25
2023-10-26T08:16:35.498Z,70.17
2023-10-26T08:16:53.969Z,70.12
2023-10-26T08:17:56.299Z,70.14
2023-10-26T08:18:58.282Z,70.21
2023-10-26T08:20:01.390Z,70.26
2023-10-26T08:21:03.349Z,70.28
2023-10-26T08:22:05.158Z,70.27
2023-10-26T08:23:07.038Z,70.25
2023-10-26T08:24:08.857Z,70.28
2023-10-26T08:25:10.771Z,70.34
2023-10-26T08:26:12.910Z,70.40
2023-10-26T08:27:14.780Z,70.43
2023-10-26T08:28:16.715Z,70.49
2023-10-26T08:29:27.246Z,70.56
2023-10-26T08:30:22.552Z,70.59
2023-10-26T08:31:24.486Z,70.59
2023-10-26T08:32:26.552Z,70.66
2023-10-26T08:33:28.479Z,70.72
2023-10-26T08:34:30.438Z,70.77
2023-10-26T08:35:32.336Z,70.78
2023-10-26T08:36:34.235Z,70.79
2023-10-26T08:37:36.093Z,70.80
2023-10-26T08:38:37.807Z,70.81
2023-10-26T08:39:39.690Z,70.87
2023-10-26T08:40:41.730Z,70.84
2023-10-26T08:41:43.613Z,70.84
2023-10-26T08:42:45.518Z,70.84
2023-10-26T08:43:47.408Z,70.88
2023-10-26T08:44:49.209Z,70.91
2023-10-26T08:45:51.072Z,70.95
2023-10-26T08:46:52.888Z,70.95
2023-10-26T08:47:54.798Z,70.92
2023-10-26T08:48:56.615Z,70.91
2023-10-26T08:50:12.307Z,70.91
2023-10-26T08:51:02.025Z,70.93
2023-10-26T08:52:03.863Z,70.93
2023-10-26T08:53:05.869Z,70.99
2023-10-26T08:54:13.761Z,71.04
2023-10-26T08:55:15.632Z,71.04
2023-10-26T08:56:17.599Z,71.07
2023-10-26T08:57:19.514Z,71.11
2023-10-26T08:58:21.316Z,71.17
2023-10-26T08:59:23.132Z,71.17
2023-10-26T09:00:24.980Z,71.17
2023-10-26T09:01:26.938Z,71.20
2023-10-26T09:02:28.961Z,71.18
2023-10-26T09:03:31.090Z,71.23
2023-10-26T09:04:33.063Z,71.31
2023-10-26T09:05:34.916Z,71.35
2023-10-26T09:06:36.777Z,71.38
2023-10-26T09:07:38.650Z,71.42
2023-10-26T09:08:40.494Z,71.47
2023-10-26T09:09:42.477Z,71.48
2023-10-26T09:10:44.346Z,71.52
2023-10-26T09:11:46.378Z,71.55
2023-10-26T09:12:48.223Z,71.55
2023-10-26T09:13:50.096Z,71.56
2023-10-26T09:14:52.099Z,71.59
2023-10-26T09:15:54.074Z,71.62
2023-10-26T09:16:56.336Z,71.68
2023-10-26T09:17:58.310Z,71.70
2023-10-26T09:19:00.171Z,71.74
2023-10-26T09:20:02.110Z,71.76
2023-10-26T09:21:04.022Z,71.76
2023-10-26T09:22:05.893Z,71.81
2023-10-26T09:23:07.742Z,71.81
2023-10-26T09:24:09.565Z,73.26
2023-10-26T09:25:11.314Z,74.90
2023-10-26T09:26:13.370Z,76.12
2023-10-26T09:27:15.232Z,77.42
2023-10-26T09:28:17.059Z,78.04
2023-10-26T09:29:18.923Z,78.91
2023-10-26T09:30:20.785Z,80.29
2023-10-26T09:31:22.669Z,81.32
2023-10-26T09:32:24.631Z,82.08
2023-10-26T09:33:26.614Z,82.66
2023-10-26T09:34:28.602Z,83.16
2023-10-26T09:35:30.723Z,83.48
2023-10-26T09:36:32.620Z,83.68
2023-10-26T09:37:34.390Z,83.77
2023-10-26T09:38:36.228Z,83.91
2023-10-26T09:39:38.062Z,83.96
2023-10-26T09:40:39.919Z,84.05
2023-10-26T09:41:41.817Z,83.38
2023-10-26T09:42:43.694Z,82.87
2023-10-26T09:43:45.586Z,82.97
2023-10-26T09:44:47.636Z,83.13
2023-10-26T09:45:49.788Z,83.16
2023-10-26T09:46:51.907Z,82.99
2023-10-26T09:47:53.963Z,83.08
2023-10-26T09:48:56.041Z,83.17
2023-10-26T09:49:57.880Z,83.15
2023-10-26T09:50:59.722Z,82.32
2023-10-26T09:52:01.553Z,81.88
2023-10-26T09:53:03.523Z,81.60
2023-10-26T09:54:05.509Z,81.30
2023-10-26T09:55:07.301Z,81.06
2023-10-26T09:56:09.855Z,80.76
2023-10-26T09:57:11.684Z,80.41
2023-10-26T09:58:13.464Z,80.04
2023-10-26T09:59:15.278Z,79.12
2023-10-26T10:00:17.137Z,78.33
2023-10-26T10:01:18.974Z,78.10
2023-10-26T10:02:20.792Z,77.73
2023-10-26T10:03:22.694Z,77.45
2023-10-26T10:04:24.489Z,77.36
2023-10-26T10:05:26.338Z,77.14
2023-10-26T10:06:28.246Z,76.86
2023-10-26T10:07:30.075Z,76.49
2023-10-26T10:08:31.960Z,75.91
2023-10-26T10:09:33.815Z,75.32
2023-10-26T10:10:35.629Z,74.99
2023-10-26T10:11:37.459Z,74.73
2023-10-26T10:12:39.427Z,74.76
2023-10-26T10:13:41.333Z,74.76
2023-10-26T10:14:43.499Z,74.67
2023-10-26T10:15:45.504Z,74.52
2023-10-26T10:16:47.784Z,74.43
2023-10-26T10:17:50.149Z,74.23
2023-10-26T10:18:52.096Z,73.97
2023-10-26T10:19:53.894Z,73.80
2023-10-26T10:20:55.744Z,73.64
2023-10-26T10:21:57.733Z,73.43
2023-10-26T10:22:59.664Z,73.18
2023-10-26T10:24:01.530Z,73.03
2023-10-26T10:25:05.712Z,72.88
2023-10-26T10:26:23.427Z,72.71
2023-10-26T10:27:10.825Z,72.20
2023-10-26T10:28:12.690Z,72.05
2023-10-26T10:29:14.568Z,71.98
2023-10-26T10:30:16.751Z,71.92
2023-10-26T10:31:18.587Z,71.45
2023-10-26T10:32:20.508Z,71.72
2023-10-26T10:33:22.437Z,72.16
2023-10-26T10:34:24.483Z,72.36
2023-10-26T10:35:26.338Z,72.13
2023-10-26T10:36:28.174Z,71.91
2023-10-26T10:37:29.932Z,72.34
2023-10-26T10:38:31.780Z,72.33
2023-10-26T10:39:33.657Z,72.10
2023-10-26T10:40:35.510Z,72.44
2023-10-26T10:41:37.340Z,72.87
2023-10-26T10:42:39.196Z,73.19
2023-10-26T10:43:41.040Z,73.34
2023-10-26T10:44:43.692Z,73.44
2023-10-26T10:45:45.735Z,73.36
2023-10-26T10:46:48.172Z,73.12
2023-10-26T10:47:50.142Z,72.68
2023-10-26T10:48:52.014Z,72.90
2023-10-26T10:49:53.964Z,72.89
2023-10-26T10:50:55.806Z,73.10
2023-10-26T10:51:57.987Z,72.74
2023-10-26T10:52:59.828Z,72.65
2023-10-26T10:54:06.079Z,72.68
2023-10-26T10:55:11.136Z,72.55
2023-10-26T10:56:09.336Z,72.89
2023-10-26T10:57:11.176Z,72.47
2023-10-26T10:58:13.115Z,72.60
2023-10-26T10:59:14.987Z,72.89
2023-10-26T11:00:17.250Z,73.07
2023-10-26T11:01:19.166Z,72.93
2023-10-26T11:02:20.880Z,72.61
2023-10-26T11:03:22.859Z,72.63
2023-10-26T11:04:24.749Z,72.78
2023-10-26T11:05:26.680Z,72.60
2023-10-26T11:06:28.520Z,72.50
2023-10-26T11:07:30.346Z,72.42
2023-10-26T11:08:32.229Z,72.10
2023-10-26T11:09:34.167Z,71.75
2023-10-26T11:10:36.026Z,71.78
2023-10-26T11:11:37.896Z,71.92
2023-10-26T11:12:39.803Z,71.95
2023-10-26T11:13:41.656Z,71.89
2023-10-26T11:14:43.514Z,71.32
2023-10-26T11:15:45.494Z,71.32
2023-10-26T11:16:47.450Z,71.41
2023-10-26T11:17:49.415Z,71.81
2023-10-26T11:18:51.681Z,71.81
2023-10-26T11:19:53.489Z,71.88
2023-10-26T11:20:55.368Z,71.93
2023-10-26T11:21:57.247Z,71.88
2023-10-26T11:22:59.069Z,71.86
2023-10-26T11:24:00.828Z,71.58
2023-10-26T11:25:02.724Z,71.41
2023-10-26T11:26:04.650Z,71.19
2023-10-26T11:27:06.529Z,71.15
2023-10-26T11:28:08.418Z,71.06
2023-10-26T11:29:10.229Z,71.08
2023-10-26T11:30:12.382Z,71.08
2023-10-26T11:31:14.374Z,70.66
2023-10-26T11:32:16.098Z,70.50
2023-10-26T11:33:17.939Z,70.32
2023-10-26T11:34:19.798Z,70.27
2023-10-26T11:35:21.622Z,70.13
2023-10-26T11:36:23.801Z,70.13
2023-10-26T11:37:25.652Z,70.15
2023-10-26T11:38:27.490Z,70.07
2023-10-26T11:39:29.410Z,70.29
2023-10-26T11:40:31.418Z,70.26
2023-10-26T11:41:33.280Z,70.50
2023-10-26T11:42:35.183Z,70.49
2023-10-26T11:43:36.994Z,70.54
2023-10-26T11:45:43.333Z,70.58
2023-10-26T11:46:45.251Z,70.63
2023-10-26T11:47:47.092Z,70.12
2023-10-26T11:48:49.005Z,70.02
2023-10-26T11:49:50.886Z,69.94
2023-10-26T11:50:52.751Z,69.77
2023-10-26T11:51:59.882Z,69.70
2023-10-26T11:52:58.246Z,69.85
2023-10-26T11:54:00.111Z,69.36
2023-10-26T11:55:01.983Z,69.84
2023-10-26T11:56:03.882Z,69.89
2023-10-26T11:57:05.748Z,70.12
2023-10-26T11:58:07.597Z,70.21
2023-10-26T11:59:09.446Z,69.96
2023-10-26T12:00:11.497Z,70.21
2023-10-26T12:01:13.370Z,70.21
2023-10-26T12:02:15.278Z,70.39
2023-10-26T12:03:17.171Z,70.38
2023-10-26T12:04:19.095Z,70.47
2023-10-26T12:05:21.052Z,70.48
2023-10-26T12:06:22.864Z,70.39
2023-10-26T12:07:24.768Z,70.39
2023-10-26T12:08:26.614Z,70.18
2023-10-26T12:09:28.530Z,70.44
2023-10-26T12:10:30.426Z,69.79
2023-10-26T12:11:33.006Z,70.11
2023-10-26T12:12:35.981Z,70.06
2023-10-26T12:13:37.810Z,70.40
2023-10-26T12:14:39.673Z,69.52
2023-10-26T12:15:41.554Z,69.89
2023-10-26T12:16:43.366Z,70.14
2023-10-26T12:17:45.242Z,70.88
2023-10-26T12:18:47.129Z,70.58
2023-10-26T12:19:49.007Z,70.53
2023-10-26T12:20:50.878Z,70.62
2023-10-26T12:21:52.704Z,70.75
2023-10-26T12:22:54.582Z,71.17
2023-10-26T12:23:56.418Z,70.55
2023-10-26T12:24:58.390Z,70.72
2023-10-26T12:26:00.298Z,71.31
2023-10-26T12:27:02.123Z,71.93
2023-10-26T12:28:21.479Z,71.63
2023-10-26T12:29:07.941Z,71.92
2023-10-26T12:30:09.984Z,72.07
2023-10-26T12:31:11.869Z,72.35
2023-10-26T12:32:13.762Z,72.76
2023-10-26T12:33:15.635Z,73.11
2023-10-26T12:34:17.499Z,73.33
2023-10-26T12:35:19.386Z,73.35
2023-10-26T12:36:21.342Z,73.39
2023-10-26T12:37:23.191Z,72.38
2023-10-26T12:38:25.051Z,72.24
2023-10-26T12:39:26.880Z,72.22
2023-10-26T12:40:28.815Z,72.22
2023-10-26T12:41:30.705Z,71.66
2023-10-26T12:42:32.616Z,70.38
2023-10-26T12:43:34.461Z,70.31
2023-10-26T12:44:36.290Z,70.64
2023-10-26T12:45:38.275Z,70.23
2023-10-26T12:46:41.461Z,70.60
2023-10-26T12:47:43.257Z,70.80
2023-10-26T12:48:45.015Z,70.53
2023-10-26T12:49:46.695Z,70.12
2023-10-26T12:50:48.737Z,70.33
2023-10-26T12:51:50.675Z,70.50
2023-10-26T12:52:52.460Z,70.84
2023-10-26T12:53:54.726Z,71.45
2023-10-26T12:54:57.826Z,71.16
2023-10-26T12:55:59.563Z,70.69
2023-10-26T12:57:01.428Z,71.16
2023-10-26T12:58:03.322Z,71.58
2023-10-26T12:59:05.189Z,71.94
2023-10-26T13:00:07.136Z,71.89
2023-10-26T13:01:09.057Z,72.33
2023-10-26T13:02:10.999Z,72.59
2023-10-26T13:03:12.836Z,72.79
2023-10-26T13:04:14.733Z,72.96
2023-10-26T13:05:16.723Z,72.73
2023-10-26T13:06:18.554Z,72.19
2023-10-26T13:07:20.435Z,71.19
2023-10-26T13:08:22.274Z,71.78
2023-10-26T13:09:24.096Z,72.38
2023-10-26T13:10:26.008Z,72.70
2023-10-26T13:11:27.850Z,72.95
2023-10-26T13:12:29.844Z,73.01
2023-10-26T13:13:31.639Z,73.15
2023-10-26T13:14:33.454Z,73.11
2023-10-26T13:15:36.264Z,73.33
2023-10-26T13:16:50.335Z,72.89
2023-10-26T13:17:41.722Z,73.01
2023-10-26T13:18:46.293Z,72.22
2023-10-26T13:19:47.079Z,71.67
2023-10-26T13:20:48.926Z,71.21
2023-10-26T13:21:50.759Z,71.06